KGON/GON METAR and TAF weather

Enter ICAO airport designator
Station Type Date Time Source
KGON METAR 2019/08/21 02:56 UTC NOAA

KGON 210256Z AUTO 00000KT 10SM CLR 22/19 A3005 RMK AO2 SLP175 T02220189 52006 $


Station Type Date Time Source
KGON Decoded METAR 2019/08/21 02:56 UTC NOAA

Station name not available
Aug 20, 2019 - 10:56 PM EDT / 2019.08.21 0256 UTC
Wind: Calm:0
Visibility: 10 mile(s):0
Sky conditions: clear
Temperature: 72.0 F (22.2 C)
Dew Point: 66.0 F (18.9 C)
Relative Humidity: 81%
Pressure (altimeter): 30.05 in. Hg (1017 hPa)
Pressure tendency: 0.02 inches (0.6 hPa) higher than three hours ago
ob: KGON 210256Z AUTO 00000KT 10SM CLR 22/19 A3005 RMK AO2 SLP175 T02220189 52006
cycle: 3

Station Type Date Time Source
KGON TAF 2019/08/21 03:40 UTC NOAA

TAF
AMD KGON 210238Z 2103/2124 VRB02KT P6SM FEW150 BKN250
FM211100 VRB02KT P6SM VCSH FEW020 SCT150 BKN250
FM211400 15006KT P6SM FEW050 SCT150 BKN250
FM211700 17009KT P6SM SCT050 BKN150 PROB30 2119/2124 5SM -TSRA BKN050CB

Example: see airport list